sensor_id;sensor_type;location;lat;lon;timestamp;P1;durP1;ratioP1;P2;durP2;ratioP2
33327;SDS011;19692;52.998;9.116;2022-08-27T00:01:50;5.33;;;4.27;;
33327;SDS011;19692;52.998;9.116;2022-08-27T00:04:15;11.53;;;5.00;;
33327;SDS011;19692;52.998;9.116;2022-08-27T00:06:41;14.93;;;4.77;;
33327;SDS011;19692;52.998;9.116;2022-08-27T00:09:07;12.77;;;4.80;;
33327;SDS011;19692;52.998;9.116;2022-08-27T00:11:33;9.50;;;4.40;;
33327;SDS011;19692;52.998;9.116;2022-08-27T00:14:00;10.43;;;4.57;;
33327;SDS011;19692;52.998;9.116;2022-08-27T00:16:26;11.23;;;4.53;;
33327;SDS011;19692;52.998;9.116;2022-08-27T00:18:53;10.60;;;4.53;;
33327;SDS011;19692;52.998;9.116;2022-08-27T00:21:20;11.40;;;4.37;;
33327;SDS011;19692;52.998;9.116;2022-08-27T00:23:46;7.40;;;4.60;;
33327;SDS011;19692;52.998;9.116;2022-08-27T00:26:12;8.33;;;4.80;;
33327;SDS011;19692;52.998;9.116;2022-08-27T00:28:39;11.47;;;4.77;;
33327;SDS011;19692;52.998;9.116;2022-08-27T00:31:06;9.00;;;4.10;;
33327;SDS011;19692;52.998;9.116;2022-08-27T00:33:32;10.43;;;4.30;;
33327;SDS011;19692;52.998;9.116;2022-08-27T00:35:59;7.80;;;4.63;;
33327;SDS011;19692;52.998;9.116;2022-08-27T00:38:25;8.83;;;5.17;;
33327;SDS011;19692;52.998;9.116;2022-08-27T00:40:51;9.30;;;4.30;;
33327;SDS011;19692;52.998;9.116;2022-08-27T00:43:25;9.93;;;4.43;;
33327;SDS011;19692;52.998;9.116;2022-08-27T00:45:57;7.83;;;4.53;;
33327;SDS011;19692;52.998;9.116;2022-08-27T00:48:30;10.00;;;5.10;;
33327;SDS011;19692;52.998;9.116;2022-08-27T00:50:59;11.53;;;4.03;;
33327;SDS011;19692;52.998;9.116;2022-08-27T00:53:26;7.67;;;3.80;;
33327;SDS011;19692;52.998;9.116;2022-08-27T00:56:11;10.67;;;4.37;;
33327;SDS011;19692;52.998;9.116;2022-08-27T00:58:47;8.10;;;4.10;;
33327;SDS011;19692;52.998;9.116;2022-08-27T01:01:17;8.87;;;3.70;;
33327;SDS011;19692;52.998;9.116;2022-08-27T01:03:52;8.70;;;5.33;;
33327;SDS011;19692;52.998;9.116;2022-08-27T01:06:23;7.93;;;4.03;;
33327;SDS011;19692;52.998;9.116;2022-08-27T01:09:03;7.30;;;4.40;;
33327;SDS011;19692;52.998;9.116;2022-08-27T01:11:34;6.60;;;3.87;;
33327;SDS011;19692;52.998;9.116;2022-08-27T01:14:01;11.60;;;4.00;;
33327;SDS011;19692;52.998;9.116;2022-08-27T01:16:35;5.43;;;3.37;;
33327;SDS011;19692;52.998;9.116;2022-08-27T01:19:08;9.13;;;4.10;;
33327;SDS011;19692;52.998;9.116;2022-08-27T01:22:09;7.20;;;3.40;;
33327;SDS011;19692;52.998;9.116;2022-08-27T01:25:15;7.63;;;3.70;;
33327;SDS011;19692;52.998;9.116;2022-08-27T01:27:42;9.47;;;3.70;;
33327;SDS011;19692;52.998;9.116;2022-08-27T01:30:11;6.43;;;3.73;;
33327;SDS011;19692;52.998;9.116;2022-08-27T01:32:41;7.10;;;3.70;;
33327;SDS011;19692;52.998;9.116;2022-08-27T01:35:08;6.57;;;3.70;;
33327;SDS011;19692;52.998;9.116;2022-08-27T01:37:37;8.47;;;4.10;;
33327;SDS011;19692;52.998;9.116;2022-08-27T01:40:05;11.30;;;3.53;;
33327;SDS011;19692;52.998;9.116;2022-08-27T01:42:34;5.60;;;3.47;;
33327;SDS011;19692;52.998;9.116;2022-08-27T01:47:37;9.53;;;3.87;;
33327;SDS011;19692;52.998;9.116;2022-08-27T01:50:04;9.17;;;3.70;;
33327;SDS011;19692;52.998;9.116;2022-08-27T01:52:34;6.83;;;3.97;;
33327;SDS011;19692;52.998;9.116;2022-08-27T01:55:00;6.47;;;3.67;;
33327;SDS011;19692;52.998;9.116;2022-08-27T01:57:26;7.40;;;3.57;;
33327;SDS011;19692;52.998;9.116;2022-08-27T01:59:52;9.40;;;4.10;;
33327;SDS011;19692;52.998;9.116;2022-08-27T02:02:20;7.33;;;3.60;;
33327;SDS011;19692;52.998;9.116;2022-08-27T02:04:46;8.40;;;5.33;;
33327;SDS011;19692;52.998;9.116;2022-08-27T02:07:12;7.53;;;3.10;;
33327;SDS011;19692;52.998;9.116;2022-08-27T02:09:38;6.20;;;3.57;;
33327;SDS011;19692;52.998;9.116;2022-08-27T02:12:03;6.17;;;3.47;;
33327;SDS011;19692;52.998;9.116;2022-08-27T02:14:29;8.83;;;3.13;;
33327;SDS011;19692;52.998;9.116;2022-08-27T02:16:55;10.57;;;3.70;;
33327;SDS011;19692;52.998;9.116;2022-08-27T02:19:21;9.47;;;3.73;;
33327;SDS011;19692;52.998;9.116;2022-08-27T02:21:47;5.73;;;3.30;;
33327;SDS011;19692;52.998;9.116;2022-08-27T02:24:14;6.03;;;3.70;;
33327;SDS011;19692;52.998;9.116;2022-08-27T02:26:40;5.83;;;3.10;;
33327;SDS011;19692;52.998;9.116;2022-08-27T02:29:06;7.43;;;3.80;;
33327;SDS011;19692;52.998;9.116;2022-08-27T02:31:32;6.27;;;3.80;;
33327;SDS011;19692;52.998;9.116;2022-08-27T02:33:58;7.00;;;3.13;;
33327;SDS011;19692;52.998;9.116;2022-08-27T02:36:24;8.67;;;3.87;;
33327;SDS011;19692;52.998;9.116;2022-08-27T02:38:50;9.40;;;3.77;;
33327;SDS011;19692;52.998;9.116;2022-08-27T02:41:16;7.90;;;3.73;;
33327;SDS011;19692;52.998;9.116;2022-08-27T02:43:42;8.87;;;3.40;;
33327;SDS011;19692;52.998;9.116;2022-08-27T02:46:09;8.70;;;3.60;;
33327;SDS011;19692;52.998;9.116;2022-08-27T02:48:37;6.43;;;3.27;;
33327;SDS011;19692;52.998;9.116;2022-08-27T02:51:04;9.50;;;4.00;;
33327;SDS011;19692;52.998;9.116;2022-08-27T02:53:31;5.00;;;3.80;;
33327;SDS011;19692;52.998;9.116;2022-08-27T02:55:57;8.53;;;3.97;;
33327;SDS011;19692;52.998;9.116;2022-08-27T02:58:24;9.17;;;3.83;;
33327;SDS011;19692;52.998;9.116;2022-08-27T03:00:50;7.50;;;4.33;;
33327;SDS011;19692;52.998;9.116;2022-08-27T03:03:16;8.07;;;4.03;;
33327;SDS011;19692;52.998;9.116;2022-08-27T03:05:42;6.97;;;3.40;;
33327;SDS011;19692;52.998;9.116;2022-08-27T03:08:07;5.40;;;3.50;;
33327;SDS011;19692;52.998;9.116;2022-08-27T03:10:33;7.60;;;3.97;;
33327;SDS011;19692;52.998;9.116;2022-08-27T03:12:59;8.60;;;3.50;;
33327;SDS011;19692;52.998;9.116;2022-08-27T03:15:25;9.17;;;3.90;;
33327;SDS011;19692;52.998;9.116;2022-08-27T03:17:51;9.07;;;3.47;;
33327;SDS011;19692;52.998;9.116;2022-08-27T03:20:41;11.63;;;3.90;;
33327;SDS011;19692;52.998;9.116;2022-08-27T03:23:09;8.53;;;3.87;;
33327;SDS011;19692;52.998;9.116;2022-08-27T03:25:36;9.77;;;3.90;;
33327;SDS011;19692;52.998;9.116;2022-08-27T03:28:02;7.67;;;3.77;;
33327;SDS011;19692;52.998;9.116;2022-08-27T03:30:29;7.97;;;4.20;;
33327;SDS011;19692;52.998;9.116;2022-08-27T03:32:55;11.13;;;3.70;;
33327;SDS011;19692;52.998;9.116;2022-08-27T03:35:21;10.43;;;4.00;;
33327;SDS011;19692;52.998;9.116;2022-08-27T03:37:48;10.23;;;3.93;;
33327;SDS011;19692;52.998;9.116;2022-08-27T03:40:14;12.00;;;3.87;;
33327;SDS011;19692;52.998;9.116;2022-08-27T03:42:40;7.20;;;3.77;;
33327;SDS011;19692;52.998;9.116;2022-08-27T03:45:06;7.67;;;4.17;;
33327;SDS011;19692;52.998;9.116;2022-08-27T03:47:34;7.60;;;4.30;;
33327;SDS011;19692;52.998;9.116;2022-08-27T03:50:00;6.90;;;3.93;;
33327;SDS011;19692;52.998;9.116;2022-08-27T03:52:28;7.97;;;4.57;;
33327;SDS011;19692;52.998;9.116;2022-08-27T03:54:54;6.10;;;3.80;;
33327;SDS011;19692;52.998;9.116;2022-08-27T03:57:20;12.40;;;4.73;;
33327;SDS011;19692;52.998;9.116;2022-08-27T03:59:45;9.33;;;4.20;;
33327;SDS011;19692;52.998;9.116;2022-08-27T04:02:11;7.10;;;4.73;;
33327;SDS011;19692;52.998;9.116;2022-08-27T04:04:37;8.23;;;4.20;;
33327;SDS011;19692;52.998;9.116;2022-08-27T04:07:02;8.43;;;4.17;;
33327;SDS011;19692;52.998;9.116;2022-08-27T04:09:28;9.23;;;4.30;;
33327;SDS011;19692;52.998;9.116;2022-08-27T04:11:54;8.17;;;4.37;;
33327;SDS011;19692;52.998;9.116;2022-08-27T04:14:20;7.93;;;4.07;;
33327;SDS011;19692;52.998;9.116;2022-08-27T04:16:46;9.10;;;4.00;;
33327;SDS011;19692;52.998;9.116;2022-08-27T04:19:12;7.57;;;4.03;;
33327;SDS011;19692;52.998;9.116;2022-08-27T04:21:38;8.23;;;4.10;;
33327;SDS011;19692;52.998;9.116;2022-08-27T04:24:04;6.70;;;4.17;;
33327;SDS011;19692;52.998;9.116;2022-08-27T04:26:30;9.87;;;4.37;;
33327;SDS011;19692;52.998;9.116;2022-08-27T04:28:57;8.77;;;4.27;;
33327;SDS011;19692;52.998;9.116;2022-08-27T04:31:23;5.80;;;3.50;;
33327;SDS011;19692;52.998;9.116;2022-08-27T04:33:49;7.03;;;3.90;;
33327;SDS011;19692;52.998;9.116;2022-08-27T04:36:17;7.80;;;3.57;;
33327;SDS011;19692;52.998;9.116;2022-08-27T04:38:44;7.60;;;3.67;;
33327;SDS011;19692;52.998;9.116;2022-08-27T04:41:10;10.73;;;3.93;;
33327;SDS011;19692;52.998;9.116;2022-08-27T04:43:56;8.03;;;3.57;;
33327;SDS011;19692;52.998;9.116;2022-08-27T04:46:31;10.30;;;4.17;;
33327;SDS011;19692;52.998;9.116;2022-08-27T04:49:01;10.90;;;4.13;;
33327;SDS011;19692;52.998;9.116;2022-08-27T04:51:38;11.10;;;4.20;;
33327;SDS011;19692;52.998;9.116;2022-08-27T04:54:04;8.17;;;3.73;;
33327;SDS011;19692;52.998;9.116;2022-08-27T04:56:32;6.73;;;4.07;;
33327;SDS011;19692;52.998;9.116;2022-08-27T04:59:00;6.63;;;3.30;;
33327;SDS011;19692;52.998;9.116;2022-08-27T05:01:28;9.60;;;3.67;;
33327;SDS011;19692;52.998;9.116;2022-08-27T05:03:55;9.33;;;3.43;;
33327;SDS011;19692;52.998;9.116;2022-08-27T05:06:23;9.83;;;3.77;;
33327;SDS011;19692;52.998;9.116;2022-08-27T05:08:49;7.73;;;3.70;;
33327;SDS011;19692;52.998;9.116;2022-08-27T05:11:16;7.97;;;3.50;;
33327;SDS011;19692;52.998;9.116;2022-08-27T05:13:44;10.60;;;3.83;;
33327;SDS011;19692;52.998;9.116;2022-08-27T05:16:12;7.67;;;4.03;;
33327;SDS011;19692;52.998;9.116;2022-08-27T05:18:43;8.53;;;5.53;;
33327;SDS011;19692;52.998;9.116;2022-08-27T05:21:14;7.87;;;4.03;;
33327;SDS011;19692;52.998;9.116;2022-08-27T05:23:46;6.53;;;4.77;;
33327;SDS011;19692;52.998;9.116;2022-08-27T05:26:12;9.40;;;4.60;;
33327;SDS011;19692;52.998;9.116;2022-08-27T05:28:39;11.07;;;4.17;;
33327;SDS011;19692;52.998;9.116;2022-08-27T05:31:06;9.40;;;3.80;;
33327;SDS011;19692;52.998;9.116;2022-08-27T05:33:34;9.60;;;4.27;;
33327;SDS011;19692;52.998;9.116;2022-08-27T05:36:02;8.07;;;3.67;;
33327;SDS011;19692;52.998;9.116;2022-08-27T05:38:29;9.73;;;3.77;;
33327;SDS011;19692;52.998;9.116;2022-08-27T05:43:29;6.93;;;3.20;;
33327;SDS011;19692;52.998;9.116;2022-08-27T05:45:56;7.47;;;3.50;;
33327;SDS011;19692;52.998;9.116;2022-08-27T05:48:22;7.07;;;3.20;;
33327;SDS011;19692;52.998;9.116;2022-08-27T05:50:47;5.47;;;3.30;;
33327;SDS011;19692;52.998;9.116;2022-08-27T05:53:13;9.67;;;3.77;;
33327;SDS011;19692;52.998;9.116;2022-08-27T05:55:40;5.60;;;3.67;;
33327;SDS011;19692;52.998;9.116;2022-08-27T05:58:09;7.57;;;3.40;;
33327;SDS011;19692;52.998;9.116;2022-08-27T06:00:56;7.93;;;3.60;;
33327;SDS011;19692;52.998;9.116;2022-08-27T06:03:32;5.87;;;3.27;;
33327;SDS011;19692;52.998;9.116;2022-08-27T06:06:07;8.13;;;3.10;;
33327;SDS011;19692;52.998;9.116;2022-08-27T06:08:35;9.10;;;4.00;;
33327;SDS011;19692;52.998;9.116;2022-08-27T06:11:02;8.27;;;3.47;;
33327;SDS011;19692;52.998;9.116;2022-08-27T06:13:31;7.17;;;3.57;;
33327;SDS011;19692;52.998;9.116;2022-08-27T06:16:05;9.30;;;3.40;;
33327;SDS011;19692;52.998;9.116;2022-08-27T06:18:34;11.03;;;4.03;;
33327;SDS011;19692;52.998;9.116;2022-08-27T06:21:02;8.43;;;3.27;;
33327;SDS011;19692;52.998;9.116;2022-08-27T06:23:29;6.57;;;3.80;;
33327;SDS011;19692;52.998;9.116;2022-08-27T06:25:56;6.87;;;3.10;;
33327;SDS011;19692;52.998;9.116;2022-08-27T06:28:23;5.73;;;3.10;;
33327;SDS011;19692;52.998;9.116;2022-08-27T06:30:53;10.00;;;3.40;;
33327;SDS011;19692;52.998;9.116;2022-08-27T06:33:38;6.93;;;3.27;;
33327;SDS011;19692;52.998;9.116;2022-08-27T06:36:06;9.57;;;3.20;;
33327;SDS011;19692;52.998;9.116;2022-08-27T06:38:35;10.00;;;3.90;;
33327;SDS011;19692;52.998;9.116;2022-08-27T06:41:02;7.93;;;3.30;;
33327;SDS011;19692;52.998;9.116;2022-08-27T06:43:30;7.70;;;4.10;;
33327;SDS011;19692;52.998;9.116;2022-08-27T06:45:56;9.83;;;5.37;;
33327;SDS011;19692;52.998;9.116;2022-08-27T06:48:21;8.57;;;3.70;;
33327;SDS011;19692;52.998;9.116;2022-08-27T06:50:48;9.03;;;3.80;;
33327;SDS011;19692;52.998;9.116;2022-08-27T06:53:14;12.20;;;4.07;;
33327;SDS011;19692;52.998;9.116;2022-08-27T06:55:43;12.00;;;3.97;;
33327;SDS011;19692;52.998;9.116;2022-08-27T06:58:11;10.03;;;3.40;;
33327;SDS011;19692;52.998;9.116;2022-08-27T07:00:38;8.27;;;3.27;;
33327;SDS011;19692;52.998;9.116;2022-08-27T07:03:05;9.27;;;3.60;;
33327;SDS011;19692;52.998;9.116;2022-08-27T07:05:31;7.60;;;3.63;;
33327;SDS011;19692;52.998;9.116;2022-08-27T07:07:59;7.20;;;2.60;;
33327;SDS011;19692;52.998;9.116;2022-08-27T07:10:26;10.00;;;4.10;;
33327;SDS011;19692;52.998;9.116;2022-08-27T07:12:52;10.83;;;3.47;;
33327;SDS011;19692;52.998;9.116;2022-08-27T07:15:18;9.43;;;3.33;;
33327;SDS011;19692;52.998;9.116;2022-08-27T07:17:44;8.80;;;3.20;;
33327;SDS011;19692;52.998;9.116;2022-08-27T07:20:10;8.23;;;2.97;;
33327;SDS011;19692;52.998;9.116;2022-08-27T07:22:40;7.33;;;3.17;;
33327;SDS011;19692;52.998;9.116;2022-08-27T07:25:08;8.50;;;3.00;;
33327;SDS011;19692;52.998;9.116;2022-08-27T07:27:37;7.87;;;3.37;;
33327;SDS011;19692;52.998;9.116;2022-08-27T07:30:04;10.97;;;3.63;;
33327;SDS011;19692;52.998;9.116;2022-08-27T07:32:32;8.23;;;2.90;;
33327;SDS011;19692;52.998;9.116;2022-08-27T07:34:58;9.23;;;3.27;;
33327;SDS011;19692;52.998;9.116;2022-08-27T07:37:24;7.77;;;2.87;;
33327;SDS011;19692;52.998;9.116;2022-08-27T07:39:50;6.63;;;2.83;;
33327;SDS011;19692;52.998;9.116;2022-08-27T07:42:15;7.00;;;3.07;;
33327;SDS011;19692;52.998;9.116;2022-08-27T07:45:00;6.80;;;3.20;;
33327;SDS011;19692;52.998;9.116;2022-08-27T07:47:25;12.77;;;5.30;;
33327;SDS011;19692;52.998;9.116;2022-08-27T07:49:51;9.87;;;3.43;;
33327;SDS011;19692;52.998;9.116;2022-08-27T07:52:17;7.40;;;3.23;;
33327;SDS011;19692;52.998;9.116;2022-08-27T07:54:43;11.97;;;3.60;;
33327;SDS011;19692;52.998;9.116;2022-08-27T07:57:09;10.67;;;4.00;;
33327;SDS011;19692;52.998;9.116;2022-08-27T07:59:35;11.57;;;3.03;;
33327;SDS011;19692;52.998;9.116;2022-08-27T08:02:01;9.20;;;3.57;;
33327;SDS011;19692;52.998;9.116;2022-08-27T08:04:28;9.17;;;3.10;;
33327;SDS011;19692;52.998;9.116;2022-08-27T08:06:54;7.03;;;3.50;;
33327;SDS011;19692;52.998;9.116;2022-08-27T08:09:20;10.23;;;3.00;;
33327;SDS011;19692;52.998;9.116;2022-08-27T08:11:48;8.07;;;3.30;;
33327;SDS011;19692;52.998;9.116;2022-08-27T08:14:15;10.80;;;3.10;;
33327;SDS011;19692;52.998;9.116;2022-08-27T08:16:42;9.53;;;3.43;;
33327;SDS011;19692;52.998;9.116;2022-08-27T08:19:08;7.87;;;2.97;;
33327;SDS011;19692;52.998;9.116;2022-08-27T08:21:34;8.83;;;4.57;;
33327;SDS011;19692;52.998;9.116;2022-08-27T08:24:00;10.90;;;3.27;;
33327;SDS011;19692;52.998;9.116;2022-08-27T08:26:26;12.33;;;3.33;;
33327;SDS011;19692;52.998;9.116;2022-08-27T08:28:53;8.00;;;3.10;;
33327;SDS011;19692;52.998;9.116;2022-08-27T08:31:19;10.13;;;3.20;;
33327;SDS011;19692;52.998;9.116;2022-08-27T08:33:45;9.67;;;3.20;;
33327;SDS011;19692;52.998;9.116;2022-08-27T08:36:15;7.60;;;3.40;;
33327;SDS011;19692;52.998;9.116;2022-08-27T08:38:42;8.00;;;3.20;;
33327;SDS011;19692;52.998;9.116;2022-08-27T08:52:41;7.87;;;3.03;;
33327;SDS011;19692;52.998;9.116;2022-08-27T08:55:28;11.10;;;3.30;;
33327;SDS011;19692;52.998;9.116;2022-08-27T09:01:02;8.23;;;2.90;;
33327;SDS011;19692;52.998;9.116;2022-08-27T09:03:31;6.83;;;2.57;;
33327;SDS011;19692;52.998;9.116;2022-08-27T09:06:01;7.73;;;3.03;;
33327;SDS011;19692;52.998;9.116;2022-08-27T09:08:49;6.33;;;3.00;;
33327;SDS011;19692;52.998;9.116;2022-08-27T09:11:32;7.63;;;3.03;;
33327;SDS011;19692;52.998;9.116;2022-08-27T09:14:07;9.00;;;3.20;;
33327;SDS011;19692;52.998;9.116;2022-08-27T09:17:01;7.80;;;3.20;;
33327;SDS011;19692;52.998;9.116;2022-08-27T09:19:28;7.63;;;3.00;;
33327;SDS011;19692;52.998;9.116;2022-08-27T09:21:57;9.60;;;3.53;;
33327;SDS011;19692;52.998;9.116;2022-08-27T09:24:37;12.07;;;3.40;;
33327;SDS011;19692;52.998;9.116;2022-08-27T09:27:37;11.63;;;3.17;;
33327;SDS011;19692;52.998;9.116;2022-08-27T09:30:07;8.27;;;3.23;;
33327;SDS011;19692;52.998;9.116;2022-08-27T09:32:44;9.00;;;4.57;;
33327;SDS011;19692;52.998;9.116;2022-08-27T09:35:23;18.37;;;5.37;;
33327;SDS011;19692;52.998;9.116;2022-08-27T09:37:52;7.90;;;3.03;;
33327;SDS011;19692;52.998;9.116;2022-08-27T09:42:56;8.97;;;3.30;;
33327;SDS011;19692;52.998;9.116;2022-08-27T09:45:32;5.70;;;2.73;;
33327;SDS011;19692;52.998;9.116;2022-08-27T09:48:03;7.87;;;3.10;;
33327;SDS011;19692;52.998;9.116;2022-08-27T09:50:34;8.27;;;3.10;;
33327;SDS011;19692;52.998;9.116;2022-08-27T09:53:16;9.93;;;3.63;;
33327;SDS011;19692;52.998;9.116;2022-08-27T09:55:44;7.13;;;3.60;;
33327;SDS011;19692;52.998;9.116;2022-08-27T09:58:21;10.13;;;3.13;;
33327;SDS011;19692;52.998;9.116;2022-08-27T10:00:58;8.67;;;2.83;;
33327;SDS011;19692;52.998;9.116;2022-08-27T10:03:50;11.20;;;3.50;;
33327;SDS011;19692;52.998;9.116;2022-08-27T10:06:29;6.47;;;3.03;;
33327;SDS011;19692;52.998;9.116;2022-08-27T10:09:07;10.23;;;3.67;;
33327;SDS011;19692;52.998;9.116;2022-08-27T10:12:04;9.83;;;3.50;;
33327;SDS011;19692;52.998;9.116;2022-08-27T10:14:59;8.00;;;3.70;;
33327;SDS011;19692;52.998;9.116;2022-08-27T10:17:31;8.30;;;3.23;;
33327;SDS011;19692;52.998;9.116;2022-08-27T10:23:21;9.17;;;2.90;;
33327;SDS011;19692;52.998;9.116;2022-08-27T10:26:16;8.77;;;3.23;;
33327;SDS011;19692;52.998;9.116;2022-08-27T10:37:51;7.67;;;3.07;;
33327;SDS011;19692;52.998;9.116;2022-08-27T10:40:53;9.80;;;3.30;;
33327;SDS011;19692;52.998;9.116;2022-08-27T10:50:04;5.30;;;2.67;;
33327;SDS011;19692;52.998;9.116;2022-08-27T10:55:21;10.23;;;3.23;;
33327;SDS011;19692;52.998;9.116;2022-08-27T11:03:49;10.30;;;2.90;;
33327;SDS011;19692;52.998;9.116;2022-08-27T11:09:02;10.20;;;2.73;;
33327;SDS011;19692;52.998;9.116;2022-08-27T11:11:36;6.03;;;2.83;;
33327;SDS011;19692;52.998;9.116;2022-08-27T11:14:10;7.17;;;2.80;;
33327;SDS011;19692;52.998;9.116;2022-08-27T11:16:56;7.37;;;2.90;;
33327;SDS011;19692;52.998;9.116;2022-08-27T11:19:34;9.50;;;2.87;;
33327;SDS011;19692;52.998;9.116;2022-08-27T11:22:23;6.67;;;2.73;;
33327;SDS011;19692;52.998;9.116;2022-08-27T11:25:04;9.23;;;3.60;;
33327;SDS011;19692;52.998;9.116;2022-08-27T11:27:39;8.17;;;2.87;;
33327;SDS011;19692;52.998;9.116;2022-08-27T11:33:05;12.33;;;2.60;;
33327;SDS011;19692;52.998;9.116;2022-08-27T11:38:42;8.10;;;3.47;;
33327;SDS011;19692;52.998;9.116;2022-08-27T11:43:47;8.63;;;2.83;;
33327;SDS011;19692;52.998;9.116;2022-08-27T11:46:20;5.77;;;2.77;;
33327;SDS011;19692;52.998;9.116;2022-08-27T11:48:55;10.03;;;3.17;;
33327;SDS011;19692;52.998;9.116;2022-08-27T11:51:29;8.50;;;3.20;;
33327;SDS011;19692;52.998;9.116;2022-08-27T11:54:00;8.60;;;3.00;;
33327;SDS011;19692;52.998;9.116;2022-08-27T11:59:34;7.97;;;2.70;;
33327;SDS011;19692;52.998;9.116;2022-08-27T12:02:09;7.40;;;2.93;;
33327;SDS011;19692;52.998;9.116;2022-08-27T12:04:45;8.07;;;2.70;;
33327;SDS011;19692;52.998;9.116;2022-08-27T12:12:21;8.00;;;2.60;;
33327;SDS011;19692;52.998;9.116;2022-08-27T12:15:02;9.60;;;3.30;;
33327;SDS011;19692;52.998;9.116;2022-08-27T12:17:39;7.17;;;2.73;;
33327;SDS011;19692;52.998;9.116;2022-08-27T12:20:43;6.23;;;2.53;;
33327;SDS011;19692;52.998;9.116;2022-08-27T12:35:14;10.37;;;2.93;;
33327;SDS011;19692;52.998;9.116;2022-08-27T12:37:47;12.57;;;3.57;;
33327;SDS011;19692;52.998;9.116;2022-08-27T12:40:29;8.60;;;2.83;;
33327;SDS011;19692;52.998;9.116;2022-08-27T12:43:28;8.90;;;2.80;;
33327;SDS011;19692;52.998;9.116;2022-08-27T12:46:05;6.00;;;2.80;;
33327;SDS011;19692;52.998;9.116;2022-08-27T12:48:41;7.50;;;2.70;;
33327;SDS011;19692;52.998;9.116;2022-08-27T12:51:11;4.67;;;2.50;;
33327;SDS011;19692;52.998;9.116;2022-08-27T13:02:48;9.87;;;3.10;;
33327;SDS011;19692;52.998;9.116;2022-08-27T13:05:41;6.20;;;2.97;;
33327;SDS011;19692;52.998;9.116;2022-08-27T13:08:25;6.43;;;2.50;;
33327;SDS011;19692;52.998;9.116;2022-08-27T13:10:55;12.90;;;2.83;;
33327;SDS011;19692;52.998;9.116;2022-08-27T13:13:31;13.93;;;2.73;;
33327;SDS011;19692;52.998;9.116;2022-08-27T13:15:58;6.87;;;2.80;;
33327;SDS011;19692;52.998;9.116;2022-08-27T13:18:26;9.50;;;2.77;;
33327;SDS011;19692;52.998;9.116;2022-08-27T13:21:00;9.13;;;2.30;;
33327;SDS011;19692;52.998;9.116;2022-08-27T13:23:42;6.30;;;2.50;;
33327;SDS011;19692;52.998;9.116;2022-08-27T13:26:10;5.53;;;2.77;;
33327;SDS011;19692;52.998;9.116;2022-08-27T13:28:38;11.57;;;2.87;;
33327;SDS011;19692;52.998;9.116;2022-08-27T13:31:06;8.07;;;2.60;;
33327;SDS011;19692;52.998;9.116;2022-08-27T13:33:35;7.47;;;2.40;;
33327;SDS011;19692;52.998;9.116;2022-08-27T13:36:03;7.83;;;2.40;;
33327;SDS011;19692;52.998;9.116;2022-08-27T13:38:32;4.97;;;2.07;;
33327;SDS011;19692;52.998;9.116;2022-08-27T13:41:09;5.13;;;2.50;;
33327;SDS011;19692;52.998;9.116;2022-08-27T13:44:07;9.03;;;2.90;;
33327;SDS011;19692;52.998;9.116;2022-08-27T13:46:44;7.77;;;2.73;;
33327;SDS011;19692;52.998;9.116;2022-08-27T13:49:20;5.87;;;2.50;;
33327;SDS011;19692;52.998;9.116;2022-08-27T13:52:27;9.63;;;2.60;;
33327;SDS011;19692;52.998;9.116;2022-08-27T13:55:00;8.00;;;2.70;;
33327;SDS011;19692;52.998;9.116;2022-08-27T13:57:45;5.97;;;2.37;;
33327;SDS011;19692;52.998;9.116;2022-08-27T14:02:49;4.70;;;2.33;;
33327;SDS011;19692;52.998;9.116;2022-08-27T14:05:45;8.77;;;2.50;;
33327;SDS011;19692;52.998;9.116;2022-08-27T14:08:12;7.13;;;2.50;;
33327;SDS011;19692;52.998;9.116;2022-08-27T14:10:45;6.57;;;2.10;;
33327;SDS011;19692;52.998;9.116;2022-08-27T14:15:47;4.97;;;2.40;;
33327;SDS011;19692;52.998;9.116;2022-08-27T14:18:32;9.53;;;2.30;;
33327;SDS011;19692;52.998;9.116;2022-08-27T14:21:00;5.80;;;2.57;;
33327;SDS011;19692;52.998;9.116;2022-08-27T14:23:28;5.57;;;1.87;;
33327;SDS011;19692;52.998;9.116;2022-08-27T14:25:58;6.37;;;2.60;;
33327;SDS011;19692;52.998;9.116;2022-08-27T14:28:25;8.17;;;2.37;;
33327;SDS011;19692;52.998;9.116;2022-08-27T14:30:52;5.13;;;2.17;;
33327;SDS011;19692;52.998;9.116;2022-08-27T14:33:18;5.27;;;2.10;;
33327;SDS011;19692;52.998;9.116;2022-08-27T14:35:43;6.43;;;2.07;;
33327;SDS011;19692;52.998;9.116;2022-08-27T14:38:17;7.27;;;3.90;;
33327;SDS011;19692;52.998;9.116;2022-08-27T14:40:47;6.77;;;2.00;;
33327;SDS011;19692;52.998;9.116;2022-08-27T14:43:17;8.23;;;3.60;;
33327;SDS011;19692;52.998;9.116;2022-08-27T14:45:43;9.93;;;2.47;;
33327;SDS011;19692;52.998;9.116;2022-08-27T14:48:16;6.37;;;2.70;;
33327;SDS011;19692;52.998;9.116;2022-08-27T14:50:45;7.63;;;2.80;;
33327;SDS011;19692;52.998;9.116;2022-08-27T14:53:12;9.93;;;2.90;;
33327;SDS011;19692;52.998;9.116;2022-08-27T14:55:38;6.23;;;2.50;;
33327;SDS011;19692;52.998;9.116;2022-08-27T14:58:04;7.23;;;2.60;;
33327;SDS011;19692;52.998;9.116;2022-08-27T15:00:30;9.10;;;3.20;;
33327;SDS011;19692;52.998;9.116;2022-08-27T15:02:56;6.10;;;2.90;;
33327;SDS011;19692;52.998;9.116;2022-08-27T15:05:22;6.73;;;2.40;;
33327;SDS011;19692;52.998;9.116;2022-08-27T15:07:50;3.43;;;2.00;;
33327;SDS011;19692;52.998;9.116;2022-08-27T15:10:18;9.87;;;2.80;;
33327;SDS011;19692;52.998;9.116;2022-08-27T15:12:44;6.70;;;2.50;;
33327;SDS011;19692;52.998;9.116;2022-08-27T15:15:10;5.37;;;2.30;;
33327;SDS011;19692;52.998;9.116;2022-08-27T15:17:38;6.33;;;2.30;;
33327;SDS011;19692;52.998;9.116;2022-08-27T15:20:05;6.47;;;2.47;;
33327;SDS011;19692;52.998;9.116;2022-08-27T15:22:35;8.83;;;2.70;;
33327;SDS011;19692;52.998;9.116;2022-08-27T15:25:03;3.83;;;2.23;;
33327;SDS011;19692;52.998;9.116;2022-08-27T15:27:30;6.80;;;2.57;;
33327;SDS011;19692;52.998;9.116;2022-08-27T15:29:57;8.17;;;2.80;;
33327;SDS011;19692;52.998;9.116;2022-08-27T15:32:28;4.57;;;2.20;;
33327;SDS011;19692;52.998;9.116;2022-08-27T15:35:00;7.33;;;2.57;;
33327;SDS011;19692;52.998;9.116;2022-08-27T15:37:32;7.63;;;2.90;;
33327;SDS011;19692;52.998;9.116;2022-08-27T15:39:59;6.97;;;2.37;;
33327;SDS011;19692;52.998;9.116;2022-08-27T15:42:25;6.53;;;2.43;;
33327;SDS011;19692;52.998;9.116;2022-08-27T15:44:52;6.73;;;2.70;;
33327;SDS011;19692;52.998;9.116;2022-08-27T15:47:20;8.97;;;3.70;;
33327;SDS011;19692;52.998;9.116;2022-08-27T15:49:46;6.00;;;2.20;;
33327;SDS011;19692;52.998;9.116;2022-08-27T15:52:13;7.97;;;2.60;;
33327;SDS011;19692;52.998;9.116;2022-08-27T15:54:42;8.00;;;3.83;;
33327;SDS011;19692;52.998;9.116;2022-08-27T15:57:08;7.57;;;2.77;;
33327;SDS011;19692;52.998;9.116;2022-08-27T15:59:35;6.50;;;2.70;;
33327;SDS011;19692;52.998;9.116;2022-08-27T16:02:00;7.87;;;2.70;;
33327;SDS011;19692;52.998;9.116;2022-08-27T16:04:27;8.77;;;2.93;;
33327;SDS011;19692;52.998;9.116;2022-08-27T16:06:53;7.70;;;3.07;;
33327;SDS011;19692;52.998;9.116;2022-08-27T16:09:19;5.67;;;2.17;;
33327;SDS011;19692;52.998;9.116;2022-08-27T16:11:45;6.20;;;2.63;;
33327;SDS011;19692;52.998;9.116;2022-08-27T16:14:11;5.77;;;2.83;;
33327;SDS011;19692;52.998;9.116;2022-08-27T16:16:39;6.73;;;2.50;;
33327;SDS011;19692;52.998;9.116;2022-08-27T16:19:09;8.63;;;2.93;;
33327;SDS011;19692;52.998;9.116;2022-08-27T16:21:36;5.53;;;2.30;;
33327;SDS011;19692;52.998;9.116;2022-08-27T16:24:03;5.07;;;3.17;;
33327;SDS011;19692;52.998;9.116;2022-08-27T16:26:33;7.57;;;2.60;;
33327;SDS011;19692;52.998;9.116;2022-08-27T16:29:00;10.07;;;3.17;;
33327;SDS011;19692;52.998;9.116;2022-08-27T16:31:26;9.57;;;3.00;;
33327;SDS011;19692;52.998;9.116;2022-08-27T16:33:52;10.73;;;5.03;;
33327;SDS011;19692;52.998;9.116;2022-08-27T16:36:18;5.23;;;2.70;;
33327;SDS011;19692;52.998;9.116;2022-08-27T16:38:44;8.20;;;4.10;;
33327;SDS011;19692;52.998;9.116;2022-08-27T16:41:10;8.10;;;3.27;;